createdAt,value
2018-03-28T00:01:54.710Z,13.57
2018-03-28T00:04:21.055Z,13.88
2018-03-28T00:06:47.314Z,12.93
2018-03-28T00:09:14.365Z,13.13
2018-03-28T00:11:41.368Z,12.68
2018-03-28T00:14:07.638Z,15.70
2018-03-28T00:16:34.731Z,14.38
2018-03-28T00:19:00.988Z,14.00
2018-03-28T00:21:27.267Z,14.10
2018-03-28T00:23:53.516Z,14.98
2018-03-28T00:26:19.833Z,14.55
2018-03-28T00:28:46.106Z,15.45
2018-03-28T00:31:12.433Z,16.10
2018-03-28T00:33:38.702Z,15.75
2018-03-28T00:36:04.967Z,15.90
2018-03-28T00:38:31.233Z,14.20
2018-03-28T00:40:57.499Z,14.80
2018-03-28T00:43:23.770Z,14.70
2018-03-28T00:45:50.145Z,15.73
2018-03-28T00:48:16.456Z,15.80
2018-03-28T00:50:42.700Z,15.20
2018-03-28T00:53:09.719Z,14.77
2018-03-28T00:55:35.959Z,15.27
2018-03-28T00:58:02.244Z,17.35
2018-03-28T01:00:28.504Z,15.80
2018-03-28T01:02:54.775Z,16.73
2018-03-28T01:05:21.039Z,16.10
2018-03-28T01:07:47.320Z,16.15
2018-03-28T01:10:14.316Z,17.65
2018-03-28T01:12:41.308Z,19.25
2018-03-28T01:15:07.584Z,19.67
2018-03-28T01:17:33.864Z,18.40
2018-03-28T01:20:00.159Z,20.83
2018-03-28T01:22:26.455Z,20.60
2018-03-28T01:24:52.714Z,18.62
2018-03-28T01:27:18.963Z,17.17
2018-03-28T01:29:45.223Z,19.45
2018-03-28T01:32:12.256Z,16.10
2018-03-28T01:34:38.538Z,16.95
2018-03-28T01:37:04.819Z,16.67
2018-03-28T01:39:31.857Z,16.30
2018-03-28T01:41:58.204Z,16.40
2018-03-28T01:44:24.564Z,14.75
2018-03-28T01:46:50.819Z,17.80
2018-03-28T01:49:17.108Z,16.73
2018-03-28T01:51:44.132Z,16.77
2018-03-28T01:54:10.383Z,16.92
2018-03-28T01:56:37.384Z,16.42
2018-03-28T01:59:03.654Z,15.77
2018-03-28T02:01:30.667Z,15.63
2018-03-28T02:03:56.914Z,15.73
2018-03-28T02:06:23.167Z,16.83
2018-03-28T02:08:50.152Z,15.68
2018-03-28T02:11:16.455Z,14.27
2018-03-28T02:16:34.052Z,13.52
2018-03-28T02:19:00.324Z,13.50
2018-03-28T02:21:26.637Z,13.35
2018-03-28T02:23:53.627Z,14.52
2018-03-28T02:26:19.913Z,14.35
2018-03-28T02:28:46.891Z,15.43
2018-03-28T02:31:13.138Z,13.73
2018-03-28T02:33:39.416Z,13.38
2018-03-28T02:36:06.479Z,14.35
2018-03-28T02:38:32.771Z,14.05
2018-03-28T02:40:59.026Z,13.62
2018-03-28T02:43:26.070Z,12.90
2018-03-28T02:45:52.316Z,14.35
2018-03-28T02:48:19.344Z,12.30
2018-03-28T02:50:45.581Z,13.43
2018-03-28T02:53:12.595Z,13.10
2018-03-28T02:55:38.861Z,13.60
2018-03-28T02:58:05.857Z,12.20
2018-03-28T03:00:32.117Z,13.40
2018-03-28T03:02:58.365Z,12.50
2018-03-28T03:05:25.397Z,12.55
2018-03-28T03:07:51.648Z,12.00
2018-03-28T03:10:18.668Z,11.60
2018-03-28T03:12:44.939Z,11.32
2018-03-28T03:15:11.224Z,11.73
2018-03-28T03:17:37.530Z,11.68
2018-03-28T03:20:03.796Z,11.80
2018-03-28T03:22:30.140Z,12.20
2018-03-28T03:24:57.196Z,12.13
2018-03-28T03:27:23.484Z,12.07
2018-03-28T03:29:49.755Z,12.93
2018-03-28T03:32:16.033Z,12.55
2018-03-28T03:34:42.312Z,12.05
2018-03-28T03:37:09.326Z,12.00
2018-03-28T03:39:35.576Z,12.05
2018-03-28T03:42:01.840Z,10.82
2018-03-28T03:44:28.109Z,11.98
2018-03-28T03:46:54.376Z,13.10
2018-03-28T03:49:21.397Z,12.50
2018-03-28T03:51:47.638Z,11.50
2018-03-28T03:54:14.692Z,11.63
2018-03-28T03:56:40.967Z,12.70
2018-03-28T03:59:07.249Z,13.20
2018-03-28T04:01:34.248Z,14.13
2018-03-28T04:04:00.524Z,12.82
2018-03-28T04:06:26.771Z,12.98
2018-03-28T04:08:53.097Z,14.82
2018-03-28T04:11:19.368Z,13.88
2018-03-28T04:13:45.678Z,12.43
2018-03-28T04:16:11.944Z,12.55
2018-03-28T04:18:38.243Z,12.88
2018-03-28T04:21:04.531Z,14.23
2018-03-28T04:23:30.772Z,13.80
2018-03-28T04:25:57.052Z,13.40
2018-03-28T04:28:23.310Z,12.80
2018-03-28T04:30:49.591Z,11.88
2018-03-28T04:33:15.852Z,11.75
2018-03-28T04:35:42.131Z,12.13
2018-03-28T04:38:08.404Z,11.25
2018-03-28T04:40:34.643Z,11.20
2018-03-28T04:43:00.915Z,10.93
2018-03-28T04:45:27.918Z,12.45
2018-03-28T04:47:54.190Z,14.60
2018-03-28T04:50:21.192Z,11.82
2018-03-28T04:52:47.451Z,12.60
2018-03-28T04:55:13.710Z,13.62
2018-03-28T04:57:39.996Z,13.57
2018-03-28T05:00:06.255Z,15.30
2018-03-28T05:02:32.507Z,13.62
2018-03-28T05:04:58.771Z,14.63
2018-03-28T05:07:25.136Z,14.45
2018-03-28T05:09:51.420Z,16.05
2018-03-28T05:12:17.664Z,16.85
2018-03-28T05:14:43.920Z,15.50
2018-03-28T05:17:10.187Z,16.98
2018-03-28T05:19:36.431Z,16.52
2018-03-28T05:22:02.713Z,17.40
2018-03-28T05:24:29.694Z,16.58
2018-03-28T05:26:55.958Z,18.02
2018-03-28T05:29:22.212Z,17.45
2018-03-28T05:31:48.468Z,18.55
2018-03-28T05:34:14.747Z,19.33
2018-03-28T05:36:41.031Z,18.15
2018-03-28T05:39:07.324Z,18.80
2018-03-28T05:41:33.573Z,17.23
2018-03-28T05:44:00.612Z,19.33
2018-03-28T05:46:27.592Z,18.45
2018-03-28T05:48:53.887Z,19.77
2018-03-28T05:51:20.919Z,19.48
2018-03-28T05:53:47.219Z,20.62
2018-03-28T05:56:13.468Z,21.25
2018-03-28T05:58:39.744Z,19.73
2018-03-28T06:01:05.997Z,20.77
2018-03-28T06:03:33.031Z,22.45
2018-03-28T06:05:59.351Z,21.12
2018-03-28T06:08:25.632Z,23.67
2018-03-28T06:10:51.904Z,24.63
2018-03-28T06:13:18.907Z,23.83
2018-03-28T06:15:45.164Z,23.90
2018-03-28T06:18:11.512Z,23.05
2018-03-28T06:20:38.528Z,24.60
2018-03-28T06:23:04.789Z,26.10
2018-03-28T06:25:31.036Z,24.00
2018-03-28T06:27:57.303Z,25.23
2018-03-28T06:30:23.614Z,23.80
2018-03-28T06:32:49.909Z,23.65
2018-03-28T06:35:16.895Z,24.33
2018-03-28T06:37:43.220Z,25.90
2018-03-28T06:40:10.323Z,22.45
2018-03-28T06:42:37.339Z,24.60
2018-03-28T06:45:03.644Z,23.50
2018-03-28T06:47:29.964Z,24.40
2018-03-28T06:49:56.307Z,24.55
2018-03-28T06:52:22.588Z,22.80
2018-03-28T06:54:49.608Z,34.78
2018-03-28T06:57:15.876Z,34.58
2018-03-28T06:59:42.234Z,27.17
2018-03-28T07:02:09.222Z,28.20
2018-03-28T07:04:35.512Z,24.17
2018-03-28T07:07:01.843Z,23.98
2018-03-28T07:09:28.110Z,23.85
2018-03-28T07:11:54.431Z,23.45
2018-03-28T07:14:20.709Z,22.77
2018-03-28T07:16:47.036Z,23.85
2018-03-28T07:19:13.324Z,25.67
2018-03-28T07:21:39.623Z,23.50
2018-03-28T07:24:05.878Z,25.52
2018-03-28T07:26:32.165Z,25.65
2018-03-28T07:28:59.151Z,24.25
2018-03-28T07:31:25.465Z,23.05
2018-03-28T07:33:51.756Z,26.80
2018-03-28T07:36:18.766Z,23.62
2018-03-28T07:38:45.063Z,25.25
2018-03-28T07:41:11.305Z,28.87
2018-03-28T07:43:38.343Z,24.70
2018-03-28T07:46:04.640Z,25.48
2018-03-28T07:48:31.692Z,25.90
2018-03-28T07:50:58.007Z,25.58
2018-03-28T07:53:24.263Z,21.42
2018-03-28T07:55:50.529Z,23.30
2018-03-28T07:58:16.771Z,22.73
2018-03-28T08:00:43.035Z,26.02
2018-03-28T08:03:10.060Z,23.55
2018-03-28T08:05:36.343Z,24.02
2018-03-28T08:08:02.639Z,23.15
2018-03-28T08:10:29.732Z,24.90
2018-03-28T08:12:56.043Z,21.95
2018-03-28T08:15:22.329Z,23.08
2018-03-28T08:17:48.604Z,24.67
2018-03-28T08:20:14.843Z,25.60
2018-03-28T08:22:41.127Z,23.33
2018-03-28T08:25:07.380Z,22.40
2018-03-28T08:27:34.386Z,22.85
2018-03-28T08:30:00.639Z,23.12
2018-03-28T08:32:26.885Z,23.98
2018-03-28T08:34:53.887Z,23.83
2018-03-28T08:37:20.123Z,23.60
2018-03-28T08:39:46.403Z,22.23
2018-03-28T08:42:12.675Z,25.67
2018-03-28T08:44:38.956Z,22.95
2018-03-28T08:47:05.217Z,25.05
2018-03-28T08:49:31.480Z,26.45
2018-03-28T08:51:57.740Z,24.05
2018-03-28T08:54:24.751Z,25.95
2018-03-28T08:56:51.025Z,22.08
2018-03-28T08:59:18.018Z,24.02
2018-03-28T09:01:44.327Z,20.40
2018-03-28T09:04:10.622Z,22.33
2018-03-28T09:06:37.668Z,21.42
2018-03-28T09:09:04.867Z,19.85
2018-03-28T09:11:31.173Z,21.45
2018-03-28T09:13:58.203Z,19.42
2018-03-28T09:16:24.481Z,19.73
2018-03-28T09:18:50.752Z,19.70
2018-03-28T09:21:17.801Z,19.85
2018-03-28T09:23:44.809Z,18.80
2018-03-28T09:26:11.083Z,21.08
2018-03-28T09:28:38.105Z,26.33
2018-03-28T09:31:04.409Z,25.95
2018-03-28T09:33:30.660Z,22.42
2018-03-28T09:35:56.935Z,20.95
2018-03-28T09:38:23.211Z,22.27
2018-03-28T09:40:49.480Z,18.90
2018-03-28T09:43:16.496Z,21.35
2018-03-28T09:45:43.543Z,18.08
2018-03-28T09:48:09.880Z,18.52
2018-03-28T09:50:36.159Z,16.92
2018-03-28T09:53:02.444Z,15.23
2018-03-28T09:55:29.501Z,17.08
2018-03-28T09:57:57.491Z,16.30
2018-03-28T10:00:25.784Z,15.65
2018-03-28T10:02:58.204Z,17.25
2018-03-28T10:05:30.400Z,16.37
2018-03-28T10:07:56.692Z,16.98
2018-03-28T10:10:23.126Z,15.40
2018-03-28T10:12:49.416Z,14.65
2018-03-28T10:15:15.683Z,15.20
2018-03-28T10:17:41.972Z,15.43
2018-03-28T10:20:08.263Z,13.93
2018-03-28T10:22:35.280Z,16.02
2018-03-28T10:25:01.579Z,17.08
2018-03-28T10:27:27.837Z,16.58
2018-03-28T10:29:54.136Z,16.73
2018-03-28T10:32:20.423Z,14.05
2018-03-28T10:34:46.738Z,14.70
2018-03-28T10:37:13.072Z,14.73
2018-03-28T10:39:39.379Z,13.65
2018-03-28T10:42:05.652Z,10.50
2018-03-28T10:44:31.914Z,11.32
2018-03-28T10:46:58.175Z,11.00
2018-03-28T10:49:24.437Z,11.15
2018-03-28T10:51:51.471Z,13.77
2018-03-28T10:54:17.729Z,10.80
2018-03-28T10:56:44.763Z,11.12
2018-03-28T10:59:11.088Z,8.73
2018-03-28T11:01:37.391Z,8.73
2018-03-28T11:04:03.652Z,9.75
2018-03-28T11:06:29.924Z,8.70
2018-03-28T11:08:56.223Z,7.65
2018-03-28T11:11:22.472Z,8.10
2018-03-28T11:13:49.511Z,8.23
2018-03-28T11:16:15.770Z,7.40
2018-03-28T11:18:42.058Z,8.18
2018-03-28T11:21:08.356Z,9.13
2018-03-28T11:23:34.620Z,7.60
2018-03-28T11:26:01.632Z,7.20
2018-03-28T11:28:27.880Z,6.70
2018-03-28T11:30:54.171Z,6.28
2018-03-28T11:33:20.438Z,6.40
2018-03-28T11:35:46.724Z,5.57
2018-03-28T11:38:13.059Z,5.97
2018-03-28T11:40:39.358Z,5.87
2018-03-28T11:43:06.335Z,7.03
2018-03-28T11:45:32.595Z,7.10
2018-03-28T11:47:58.838Z,6.75
2018-03-28T11:50:25.100Z,6.62
2018-03-28T11:52:52.147Z,8.98
2018-03-28T11:55:18.368Z,8.88
2018-03-28T11:57:45.371Z,8.15
2018-03-28T12:00:11.635Z,5.72
2018-03-28T12:02:37.896Z,8.32
2018-03-28T12:05:04.150Z,7.97
2018-03-28T12:07:30.413Z,8.07
2018-03-28T12:09:56.648Z,8.27
2018-03-28T12:12:22.915Z,8.07
2018-03-28T12:14:49.152Z,8.65
2018-03-28T12:17:15.467Z,7.87
2018-03-28T12:19:41.761Z,8.50
2018-03-28T12:22:08.791Z,9.52
2018-03-28T12:24:35.067Z,10.30
2018-03-28T12:27:02.051Z,10.10
2018-03-28T12:29:28.323Z,8.20
2018-03-28T12:31:55.310Z,7.90
2018-03-28T12:34:21.573Z,8.65
2018-03-28T12:36:47.861Z,10.48
2018-03-28T12:39:14.099Z,8.43
2018-03-28T12:41:40.344Z,7.50
2018-03-28T12:44:06.615Z,6.87
2018-03-28T12:46:33.609Z,6.40
2018-03-28T12:48:59.864Z,7.62
2018-03-28T12:51:26.188Z,7.47
2018-03-28T12:53:52.443Z,7.80
2018-03-28T12:56:19.503Z,7.75
2018-03-28T12:58:46.495Z,9.60
2018-03-28T13:01:12.779Z,8.40
2018-03-28T13:03:39.100Z,8.07
2018-03-28T13:06:06.966Z,8.20
2018-03-28T13:08:33.228Z,8.70
2018-03-28T13:10:59.556Z,8.80
2018-03-28T13:13:25.823Z,10.15
2018-03-28T13:15:52.095Z,8.73
2018-03-28T13:18:18.420Z,10.40
2018-03-28T13:20:45.434Z,11.05
2018-03-28T13:23:11.723Z,8.15
2018-03-28T13:25:38.148Z,9.95
2018-03-28T13:28:04.470Z,10.50
2018-03-28T13:30:31.502Z,10.88
2018-03-28T13:32:57.770Z,10.23
2018-03-28T13:35:24.068Z,10.80
2018-03-28T13:37:51.114Z,10.65
2018-03-28T13:40:17.411Z,8.77
2018-03-28T13:42:43.757Z,8.93
2018-03-28T13:45:10.044Z,9.50
2018-03-28T13:47:36.298Z,9.43
2018-03-28T13:50:02.626Z,8.98
2018-03-28T13:52:28.892Z,9.63
2018-03-28T13:54:55.194Z,10.43
2018-03-28T13:57:21.470Z,8.80
2018-03-28T13:59:48.477Z,9.20
2018-03-28T14:02:14.762Z,9.55
2018-03-28T14:04:41.070Z,9.07
2018-03-28T14:07:08.127Z,10.32
2018-03-28T14:09:34.420Z,11.65
2018-03-28T14:12:00.675Z,11.70
2018-03-28T14:14:26.922Z,11.48
2018-03-28T14:16:53.200Z,11.15
2018-03-28T14:19:19.496Z,12.32
2018-03-28T14:21:45.843Z,10.15
2018-03-28T14:24:12.091Z,10.25
2018-03-28T14:26:38.363Z,11.43
2018-03-28T14:29:04.636Z,11.20
2018-03-28T14:31:30.949Z,11.50
2018-03-28T14:33:57.196Z,13.02
2018-03-28T14:36:23.484Z,13.02
2018-03-28T14:38:49.780Z,12.82
2018-03-28T14:41:16.055Z,12.05
2018-03-28T14:43:42.316Z,12.57
2018-03-28T14:46:08.596Z,10.73
2018-03-28T14:48:34.847Z,11.43
2018-03-28T14:51:01.138Z,12.52
2018-03-28T14:53:27.408Z,9.88
2018-03-28T14:55:54.420Z,10.40
2018-03-28T14:58:20.700Z,11.50
2018-03-28T15:00:46.996Z,11.65
2018-03-28T15:03:14.012Z,10.93
2018-03-28T15:05:40.281Z,11.15
2018-03-28T15:08:07.307Z,9.55
2018-03-28T15:10:33.579Z,10.05
2018-03-28T15:12:59.882Z,9.68
2018-03-28T15:15:26.896Z,10.15
2018-03-28T15:17:53.228Z,8.40
2018-03-28T15:20:19.882Z,9.18
2018-03-28T15:22:46.211Z,10.23
2018-03-28T15:25:12.540Z,9.20
2018-03-28T15:27:38.830Z,8.82
2018-03-28T15:30:05.096Z,9.90
2018-03-28T15:32:31.356Z,8.30
2018-03-28T15:34:57.603Z,9.90
2018-03-28T15:37:23.885Z,8.35
2018-03-28T15:39:50.143Z,9.10
2018-03-28T15:42:16.392Z,8.25
2018-03-28T15:44:42.660Z,9.13
2018-03-28T15:47:08.906Z,9.60
2018-03-28T15:49:35.282Z,8.88
2018-03-28T15:52:01.568Z,7.97
2018-03-28T15:54:27.839Z,9.02
2018-03-28T15:56:54.092Z,6.65
2018-03-28T15:59:20.358Z,8.02
2018-03-28T16:01:46.627Z,8.40
2018-03-28T16:04:12.895Z,8.65
2018-03-28T16:06:39.191Z,8.65
2018-03-28T16:09:05.558Z,7.20
2018-03-28T16:11:31.906Z,8.27
2018-03-28T16:13:58.168Z,8.98
2018-03-28T16:16:24.639Z,7.78
2018-03-28T16:18:51.071Z,9.30
2018-03-28T16:21:17.453Z,8.95
2018-03-28T16:23:44.816Z,8.50
2018-03-28T16:26:11.125Z,9.10
2018-03-28T16:28:37.399Z,7.57
2018-03-28T16:31:03.678Z,9.63
2018-03-28T16:33:29.935Z,9.13
2018-03-28T16:35:56.273Z,8.95
2018-03-28T16:38:22.928Z,9.27
2018-03-28T16:40:49.390Z,9.60
2018-03-28T16:43:15.835Z,10.05
2018-03-28T16:45:42.060Z,9.30
2018-03-28T16:48:08.397Z,8.43
2018-03-28T16:50:34.664Z,9.88
2018-03-28T16:53:01.643Z,9.70
2018-03-28T16:55:27.977Z,9.10
2018-03-28T16:57:54.218Z,8.80
2018-03-28T17:00:20.511Z,9.57
2018-03-28T17:02:46.833Z,8.13
2018-03-28T17:05:13.855Z,9.93
2018-03-28T17:07:40.193Z,8.75
2018-03-28T17:10:07.316Z,9.63
2018-03-28T17:12:33.631Z,8.55
2018-03-28T17:14:59.986Z,9.65
2018-03-28T17:17:26.292Z,9.25
2018-03-28T17:19:52.883Z,10.50
2018-03-28T17:22:19.908Z,10.77
2018-03-28T17:24:46.225Z,8.80
2018-03-28T17:27:12.755Z,9.85
2018-03-28T17:29:39.342Z,10.85
2018-03-28T17:32:06.025Z,9.80
2018-03-28T17:34:32.295Z,10.10
2018-03-28T17:36:58.562Z,9.70
2018-03-28T17:39:24.856Z,9.55
2018-03-28T17:41:51.883Z,10.30
2018-03-28T17:44:18.136Z,7.90
2018-03-28T17:46:45.475Z,9.05
2018-03-28T17:49:11.744Z,7.15
2018-03-28T17:51:38.005Z,6.20
2018-03-28T17:54:04.299Z,6.82
2018-03-28T17:56:31.296Z,5.18
2018-03-28T17:58:57.596Z,4.18
2018-03-28T18:01:23.865Z,3.22
2018-03-28T18:03:50.144Z,3.25
2018-03-28T18:06:16.406Z,3.42
2018-03-28T18:08:42.684Z,2.00
2018-03-28T18:11:09.697Z,2.30
2018-03-28T18:13:35.971Z,3.33
2018-03-28T18:16:02.241Z,3.35
2018-03-28T18:18:28.519Z,4.25
2018-03-28T18:20:55.535Z,4.00
2018-03-28T18:23:21.780Z,3.60
2018-03-28T18:25:48.792Z,4.07
2018-03-28T18:28:15.064Z,4.70
2018-03-28T18:30:41.331Z,4.05
2018-03-28T18:33:07.616Z,3.95
2018-03-28T18:35:34.663Z,4.22
2018-03-28T18:38:00.920Z,4.35
2018-03-28T18:40:27.911Z,4.45
2018-03-28T18:42:54.963Z,5.45
2018-03-28T18:45:21.228Z,4.57
2018-03-28T18:47:48.252Z,4.93
2018-03-28T18:50:14.550Z,5.57
2018-03-28T18:52:40.803Z,6.50
2018-03-28T18:55:07.075Z,6.28
2018-03-28T18:57:34.059Z,6.00
2018-03-28T19:00:00.365Z,7.50
2018-03-28T19:02:26.672Z,6.85
2018-03-28T19:04:53.668Z,5.62
2018-03-28T19:07:19.932Z,3.80
2018-03-28T19:09:46.232Z,4.47
2018-03-28T19:12:12.495Z,6.20
2018-03-28T19:14:38.796Z,6.03
2018-03-28T19:17:05.096Z,5.22
2018-03-28T19:19:31.407Z,6.50
2018-03-28T19:21:58.400Z,6.18
2018-03-28T19:24:24.703Z,7.45
2018-03-28T19:26:50.935Z,7.00
2018-03-28T19:29:17.260Z,6.70
2018-03-28T19:31:43.512Z,6.03
2018-03-28T19:34:09.781Z,7.15
2018-03-28T19:36:36.013Z,7.10
2018-03-28T19:39:03.063Z,6.93
2018-03-28T19:41:29.323Z,8.02
2018-03-28T19:43:55.635Z,9.13
2018-03-28T19:46:21.892Z,9.40
2018-03-28T19:48:48.155Z,9.38
2018-03-28T19:51:14.433Z,9.80
2018-03-28T19:53:41.419Z,9.10
2018-03-28T19:56:07.704Z,9.63
2018-03-28T19:58:34.695Z,11.18
2018-03-28T20:01:00.984Z,11.00
2018-03-28T20:03:27.963Z,9.88
2018-03-28T20:05:54.258Z,9.70
2018-03-28T20:08:21.580Z,9.90
2018-03-28T20:10:47.884Z,10.13
2018-03-28T20:13:14.190Z,9.88
2018-03-28T20:15:40.471Z,7.53
2018-03-28T20:18:06.773Z,9.00
2018-03-28T20:20:33.015Z,10.98
2018-03-28T20:22:59.309Z,11.88
2018-03-28T20:25:25.575Z,11.10
2018-03-28T20:27:51.997Z,12.02
2018-03-28T20:30:18.260Z,10.63
2018-03-28T20:32:44.577Z,11.80
2018-03-28T20:35:10.864Z,8.68
2018-03-28T20:37:37.163Z,9.77
2018-03-28T20:40:03.459Z,10.25
2018-03-28T20:42:29.764Z,11.05
2018-03-28T20:44:56.064Z,9.38
2018-03-28T20:47:22.354Z,8.90
2018-03-28T20:49:48.644Z,10.57
2018-03-28T20:52:14.884Z,9.30
2018-03-28T20:54:41.167Z,9.07
2018-03-28T20:57:07.419Z,9.95
2018-03-28T20:59:33.696Z,11.27
2018-03-28T21:01:59.984Z,10.18
2018-03-28T21:04:26.240Z,10.93
2018-03-28T21:06:52.511Z,10.40
2018-03-28T21:09:18.777Z,9.98
2018-03-28T21:11:45.036Z,10.40
2018-03-28T21:14:11.403Z,11.40
2018-03-28T21:16:38.463Z,9.85
2018-03-28T21:19:05.471Z,10.10
2018-03-28T21:21:31.827Z,10.82
2018-03-28T21:23:58.104Z,11.57
2018-03-28T21:26:24.383Z,11.27
2018-03-28T21:28:50.806Z,12.10
2018-03-28T21:31:17.083Z,12.35
2018-03-28T21:33:43.342Z,12.25
2018-03-28T21:36:10.389Z,12.73
2018-03-28T21:38:36.651Z,12.75
2018-03-28T21:41:02.907Z,13.93
2018-03-28T21:43:29.911Z,12.95
2018-03-28T21:45:56.919Z,14.27
2018-03-28T21:48:23.216Z,13.85
2018-03-28T21:50:50.210Z,14.05
2018-03-28T21:53:16.467Z,13.98
2018-03-28T21:55:42.731Z,13.20
2018-03-28T21:58:09.732Z,14.20
2018-03-28T22:00:36.004Z,12.40
2018-03-28T22:03:03.010Z,12.75
2018-03-28T22:05:29.265Z,13.00
2018-03-28T22:07:55.531Z,12.93
2018-03-28T22:10:21.796Z,13.00
2018-03-28T22:12:48.043Z,13.60
2018-03-28T22:15:14.312Z,14.82
2018-03-28T22:17:41.300Z,13.77
2018-03-28T22:20:07.611Z,13.13
2018-03-28T22:22:33.868Z,14.65
2018-03-28T22:25:00.128Z,12.73
2018-03-28T22:27:27.172Z,13.27
2018-03-28T22:29:54.183Z,12.80
2018-03-28T22:32:20.448Z,12.63
2018-03-28T22:34:46.719Z,10.70
2018-03-28T22:37:13.000Z,10.38
2018-03-28T22:39:39.236Z,10.65
2018-03-28T22:42:06.239Z,9.73
2018-03-28T22:44:32.475Z,9.05
2018-03-28T22:46:58.744Z,10.00
2018-03-28T22:49:24.972Z,8.38
2018-03-28T22:51:51.975Z,7.72
2018-03-28T22:54:18.992Z,7.07
2018-03-28T22:56:45.319Z,8.43
2018-03-28T22:59:12.310Z,7.35
2018-03-28T23:01:38.555Z,8.52
2018-03-28T23:04:04.852Z,8.10
2018-03-28T23:06:31.132Z,7.10
2018-03-28T23:08:57.379Z,6.53
2018-03-28T23:11:24.376Z,7.30
2018-03-28T23:13:50.635Z,8.10
2018-03-28T23:16:16.897Z,8.45
2018-03-28T23:18:43.150Z,6.68
2018-03-28T23:21:09.418Z,8.38
2018-03-28T23:23:35.659Z,7.28
2018-03-28T23:26:01.926Z,6.35
2018-03-28T23:28:28.167Z,7.50
2018-03-28T23:30:54.424Z,7.37
2018-03-28T23:33:20.682Z,7.70
2018-03-28T23:35:47.704Z,6.65
2018-03-28T23:38:13.976Z,8.70
2018-03-28T23:40:40.270Z,8.50
2018-03-28T23:43:06.521Z,8.48
2018-03-28T23:45:33.511Z,8.88
2018-03-28T23:47:59.766Z,9.20
2018-03-28T23:50:25.999Z,8.40
2018-03-28T23:52:52.273Z,9.77
2018-03-28T23:55:18.547Z,9.15
2018-03-28T23:57:44.807Z,9.85
